ěÝzenÝ letovÚho provozu ╚eskÚ republiky
Letiste: LKLN Aktualizace: 17.05.2022 23:20:31  UTC
 METAR LKLN 17.05. 23:30 ...
METAR LKLN 172330Z AUTO VRB01KT 6000 NCD 12/11 Q1023=